sensor_id;sensor_type;location;lat;lon;timestamp;P1;durP1;ratioP1;P2;durP2;ratioP2
21848;SDS011;11089;49.852;19.700;2022-12-05T00:01:37;63.15;;;23.92;;
21848;SDS011;11089;49.852;19.700;2022-12-05T00:04:41;57.47;;;23.38;;
21848;SDS011;11089;49.852;19.700;2022-12-05T00:07:43;55.75;;;23.13;;
21848;SDS011;11089;49.852;19.700;2022-12-05T00:10:44;59.28;;;21.48;;
21848;SDS011;11089;49.852;19.700;2022-12-05T00:13:45;57.92;;;23.15;;
21848;SDS011;11089;49.852;19.700;2022-12-05T00:16:46;61.80;;;24.02;;
21848;SDS011;11089;49.852;19.700;2022-12-05T00:19:47;62.42;;;24.50;;
21848;SDS011;11089;49.852;19.700;2022-12-05T00:22:48;65.47;;;21.67;;
21848;SDS011;11089;49.852;19.700;2022-12-05T00:25:49;56.47;;;21.80;;
21848;SDS011;11089;49.852;19.700;2022-12-05T00:28:50;61.88;;;21.55;;
21848;SDS011;11089;49.852;19.700;2022-12-05T00:31:51;55.85;;;22.25;;
21848;SDS011;11089;49.852;19.700;2022-12-05T00:34:52;54.15;;;22.13;;
21848;SDS011;11089;49.852;19.700;2022-12-05T00:37:53;54.95;;;22.67;;
21848;SDS011;11089;49.852;19.700;2022-12-05T00:40:54;53.80;;;20.75;;
21848;SDS011;11089;49.852;19.700;2022-12-05T00:43:56;50.15;;;19.63;;
21848;SDS011;11089;49.852;19.700;2022-12-05T00:46:58;54.15;;;21.65;;
21848;SDS011;11089;49.852;19.700;2022-12-05T00:49:59;59.67;;;21.95;;
21848;SDS011;11089;49.852;19.700;2022-12-05T00:53:00;52.05;;;21.65;;
21848;SDS011;11089;49.852;19.700;2022-12-05T00:56:05;52.53;;;21.60;;
21848;SDS011;11089;49.852;19.700;2022-12-05T00:59:15;54.10;;;20.20;;
21848;SDS011;11089;49.852;19.700;2022-12-05T01:02:17;47.03;;;18.98;;
21848;SDS011;11089;49.852;19.700;2022-12-05T01:05:18;47.33;;;19.42;;
21848;SDS011;11089;49.852;19.700;2022-12-05T01:08:19;48.67;;;19.77;;
21848;SDS011;11089;49.852;19.700;2022-12-05T01:11:20;48.22;;;20.75;;
21848;SDS011;11089;49.852;19.700;2022-12-05T01:14:23;48.60;;;20.77;;
21848;SDS011;11089;49.852;19.700;2022-12-05T01:17:25;51.08;;;20.30;;
21848;SDS011;11089;49.852;19.700;2022-12-05T01:20:26;48.13;;;20.70;;
21848;SDS011;11089;49.852;19.700;2022-12-05T01:23:27;57.75;;;20.60;;
21848;SDS011;11089;49.852;19.700;2022-12-05T01:26:28;56.15;;;21.15;;
21848;SDS011;11089;49.852;19.700;2022-12-05T01:29:29;55.75;;;21.23;;
21848;SDS011;11089;49.852;19.700;2022-12-05T01:32:30;56.22;;;21.92;;
21848;SDS011;11089;49.852;19.700;2022-12-05T01:35:31;60.53;;;21.85;;
21848;SDS011;11089;49.852;19.700;2022-12-05T01:38:32;54.72;;;20.88;;
21848;SDS011;11089;49.852;19.700;2022-12-05T01:41:34;54.97;;;21.63;;
21848;SDS011;11089;49.852;19.700;2022-12-05T01:47:38;55.72;;;22.15;;
21848;SDS011;11089;49.852;19.700;2022-12-05T01:50:39;56.97;;;21.98;;
21848;SDS011;11089;49.852;19.700;2022-12-05T01:53:41;48.72;;;20.08;;
21848;SDS011;11089;49.852;19.700;2022-12-05T01:56:43;52.92;;;21.35;;
21848;SDS011;11089;49.852;19.700;2022-12-05T01:59:59;49.80;;;19.85;;
21848;SDS011;11089;49.852;19.700;2022-12-05T02:03:08;58.25;;;20.85;;
21848;SDS011;11089;49.852;19.700;2022-12-05T02:06:13;59.30;;;21.48;;
21848;SDS011;11089;49.852;19.700;2022-12-05T02:09:15;51.28;;;19.98;;
21848;SDS011;11089;49.852;19.700;2022-12-05T02:12:16;49.25;;;20.73;;
21848;SDS011;11089;49.852;19.700;2022-12-05T02:15:22;58.72;;;21.40;;
21848;SDS011;11089;49.852;19.700;2022-12-05T02:28:26;58.63;;;20.58;;
21848;SDS011;11089;49.852;19.700;2022-12-05T02:41:45;55.78;;;20.23;;
21848;SDS011;11089;49.852;19.700;2022-12-05T02:45:03;52.80;;;20.55;;
21848;SDS011;11089;49.852;19.700;2022-12-05T02:48:09;57.08;;;20.90;;
21848;SDS011;11089;49.852;19.700;2022-12-05T02:51:12;48.15;;;19.65;;
21848;SDS011;11089;49.852;19.700;2022-12-05T02:54:18;47.55;;;19.02;;
21848;SDS011;11089;49.852;19.700;2022-12-05T02:57:23;53.40;;;20.83;;
21848;SDS011;11089;49.852;19.700;2022-12-05T03:00:24;52.45;;;21.58;;
21848;SDS011;11089;49.852;19.700;2022-12-05T03:03:25;43.40;;;18.83;;
21848;SDS011;11089;49.852;19.700;2022-12-05T03:06:28;55.75;;;20.42;;
21848;SDS011;11089;49.852;19.700;2022-12-05T03:12:52;47.70;;;18.77;;
21848;SDS011;11089;49.852;19.700;2022-12-05T03:16:02;46.47;;;19.58;;
21848;SDS011;11089;49.852;19.700;2022-12-05T03:19:15;52.90;;;20.30;;
21848;SDS011;11089;49.852;19.700;2022-12-05T03:22:31;52.65;;;19.55;;
21848;SDS011;11089;49.852;19.700;2022-12-05T03:25:53;54.10;;;19.67;;
21848;SDS011;11089;49.852;19.700;2022-12-05T03:35:35;58.33;;;20.85;;
21848;SDS011;11089;49.852;19.700;2022-12-05T03:39:00;59.38;;;22.75;;
21848;SDS011;11089;49.852;19.700;2022-12-05T03:42:17;58.08;;;21.05;;
21848;SDS011;11089;49.852;19.700;2022-12-05T03:45:34;62.88;;;20.98;;
21848;SDS011;11089;49.852;19.700;2022-12-05T03:48:53;59.78;;;20.98;;
21848;SDS011;11089;49.852;19.700;2022-12-05T03:52:43;58.50;;;21.35;;
21848;SDS011;11089;49.852;19.700;2022-12-05T03:55:27;52.33;;;19.73;;
21848;SDS011;11089;49.852;19.700;2022-12-05T03:58:33;56.83;;;20.30;;
21848;SDS011;11089;49.852;19.700;2022-12-05T04:01:48;50.15;;;19.88;;
21848;SDS011;11089;49.852;19.700;2022-12-05T04:05:00;53.25;;;19.63;;
21848;SDS011;11089;49.852;19.700;2022-12-05T04:08:07;54.97;;;20.65;;
21848;SDS011;11089;49.852;19.700;2022-12-05T04:11:33;52.55;;;18.67;;
21848;SDS011;11089;49.852;19.700;2022-12-05T04:14:41;50.45;;;19.13;;
21848;SDS011;11089;49.852;19.700;2022-12-05T04:20:59;53.55;;;21.13;;
21848;SDS011;11089;49.852;19.700;2022-12-05T04:24:19;52.00;;;19.40;;
21848;SDS011;11089;49.852;19.700;2022-12-05T04:31:17;53.33;;;19.55;;
21848;SDS011;11089;49.852;19.700;2022-12-05T04:34:31;53.20;;;20.17;;
21848;SDS011;11089;49.852;19.700;2022-12-05T04:37:37;56.63;;;21.23;;
21848;SDS011;11089;49.852;19.700;2022-12-05T04:40:46;58.42;;;20.58;;
21848;SDS011;11089;49.852;19.700;2022-12-05T04:43:53;55.78;;;20.90;;
21848;SDS011;11089;49.852;19.700;2022-12-05T04:46:59;59.45;;;21.88;;
21848;SDS011;11089;49.852;19.700;2022-12-05T04:50:03;55.00;;;22.15;;
21848;SDS011;11089;49.852;19.700;2022-12-05T04:53:05;57.88;;;23.20;;
21848;SDS011;11089;49.852;19.700;2022-12-05T04:56:10;54.72;;;20.45;;
21848;SDS011;11089;49.852;19.700;2022-12-05T04:59:14;52.72;;;18.90;;
21848;SDS011;11089;49.852;19.700;2022-12-05T05:02:20;51.50;;;20.15;;
21848;SDS011;11089;49.852;19.700;2022-12-05T05:05:31;46.15;;;17.88;;
21848;SDS011;11089;49.852;19.700;2022-12-05T05:08:35;50.20;;;19.60;;
21848;SDS011;11089;49.852;19.700;2022-12-05T05:11:35;51.38;;;19.88;;
21848;SDS011;11089;49.852;19.700;2022-12-05T05:14:37;51.78;;;19.35;;
21848;SDS011;11089;49.852;19.700;2022-12-05T05:17:38;51.42;;;19.02;;
21848;SDS011;11089;49.852;19.700;2022-12-05T05:20:39;58.97;;;22.60;;
21848;SDS011;11089;49.852;19.700;2022-12-05T05:23:39;57.80;;;22.50;;
21848;SDS011;11089;49.852;19.700;2022-12-05T05:26:41;67.80;;;24.15;;
21848;SDS011;11089;49.852;19.700;2022-12-05T05:29:44;69.07;;;26.88;;
21848;SDS011;11089;49.852;19.700;2022-12-05T05:32:45;73.40;;;25.73;;
21848;SDS011;11089;49.852;19.700;2022-12-05T05:35:46;66.30;;;25.70;;
21848;SDS011;11089;49.852;19.700;2022-12-05T05:38:48;65.18;;;26.10;;
21848;SDS011;11089;49.852;19.700;2022-12-05T05:41:50;70.47;;;25.67;;
21848;SDS011;11089;49.852;19.700;2022-12-05T05:44:51;69.05;;;25.30;;
21848;SDS011;11089;49.852;19.700;2022-12-05T05:47:52;67.38;;;23.65;;
21848;SDS011;11089;49.852;19.700;2022-12-05T05:50:53;64.20;;;23.95;;
21848;SDS011;11089;49.852;19.700;2022-12-05T05:53:54;70.65;;;26.35;;
21848;SDS011;11089;49.852;19.700;2022-12-05T05:56:56;56.83;;;22.02;;
21848;SDS011;11089;49.852;19.700;2022-12-05T05:59:57;66.30;;;24.67;;
21848;SDS011;11089;49.852;19.700;2022-12-05T06:02:59;77.40;;;26.42;;
21848;SDS011;11089;49.852;19.700;2022-12-05T06:06:01;72.18;;;26.33;;
21848;SDS011;11089;49.852;19.700;2022-12-05T06:09:05;60.90;;;23.63;;
21848;SDS011;11089;49.852;19.700;2022-12-05T06:12:06;66.43;;;25.60;;
21848;SDS011;11089;49.852;19.700;2022-12-05T06:15:07;68.97;;;25.10;;
21848;SDS011;11089;49.852;19.700;2022-12-05T06:18:08;85.43;;;25.20;;
21848;SDS011;11089;49.852;19.700;2022-12-05T06:21:09;69.47;;;25.75;;
21848;SDS011;11089;49.852;19.700;2022-12-05T06:24:10;80.10;;;25.83;;
21848;SDS011;11089;49.852;19.700;2022-12-05T06:27:11;67.28;;;25.52;;
21848;SDS011;11089;49.852;19.700;2022-12-05T06:30:12;60.10;;;24.10;;
21848;SDS011;11089;49.852;19.700;2022-12-05T06:33:13;74.50;;;26.35;;
21848;SDS011;11089;49.852;19.700;2022-12-05T06:36:15;74.78;;;26.50;;
21848;SDS011;11089;49.852;19.700;2022-12-05T06:39:18;89.30;;;27.40;;
21848;SDS011;11089;49.852;19.700;2022-12-05T06:42:19;67.38;;;24.83;;
21848;SDS011;11089;49.852;19.700;2022-12-05T06:45:21;70.75;;;25.92;;
21848;SDS011;11089;49.852;19.700;2022-12-05T06:48:22;67.32;;;24.65;;
21848;SDS011;11089;49.852;19.700;2022-12-05T06:51:23;69.75;;;24.85;;
21848;SDS011;11089;49.852;19.700;2022-12-05T06:54:24;83.18;;;28.35;;
21848;SDS011;11089;49.852;19.700;2022-12-05T06:57:28;83.13;;;27.58;;
21848;SDS011;11089;49.852;19.700;2022-12-05T07:00:30;75.55;;;26.83;;
21848;SDS011;11089;49.852;19.700;2022-12-05T07:03:46;77.70;;;27.55;;
21848;SDS011;11089;49.852;19.700;2022-12-05T07:06:49;83.05;;;30.25;;
21848;SDS011;11089;49.852;19.700;2022-12-05T07:09:50;91.53;;;32.35;;
21848;SDS011;11089;49.852;19.700;2022-12-05T07:12:53;109.82;;;34.80;;
21848;SDS011;11089;49.852;19.700;2022-12-05T07:15:55;103.88;;;33.30;;
21848;SDS011;11089;49.852;19.700;2022-12-05T07:18:58;130.38;;;36.42;;
21848;SDS011;11089;49.852;19.700;2022-12-05T07:21:59;96.03;;;34.42;;
21848;SDS011;11089;49.852;19.700;2022-12-05T07:25:00;89.68;;;33.22;;
21848;SDS011;11089;49.852;19.700;2022-12-05T07:28:01;114.80;;;39.72;;
21848;SDS011;11089;49.852;19.700;2022-12-05T07:31:03;98.13;;;36.17;;
21848;SDS011;11089;49.852;19.700;2022-12-05T07:34:15;113.32;;;37.22;;
21848;SDS011;11089;49.852;19.700;2022-12-05T07:37:16;84.55;;;31.50;;
21848;SDS011;11089;49.852;19.700;2022-12-05T07:40:17;66.70;;;27.17;;
21848;SDS011;11089;49.852;19.700;2022-12-05T07:43:18;65.15;;;24.95;;
21848;SDS011;11089;49.852;19.700;2022-12-05T07:46:18;64.65;;;24.90;;
21848;SDS011;11089;49.852;19.700;2022-12-05T07:49:20;61.15;;;23.63;;
21848;SDS011;11089;49.852;19.700;2022-12-05T07:52:21;57.63;;;23.38;;
21848;SDS011;11089;49.852;19.700;2022-12-05T07:55:22;60.47;;;22.23;;
21848;SDS011;11089;49.852;19.700;2022-12-05T07:58:23;59.70;;;22.52;;
21848;SDS011;11089;49.852;19.700;2022-12-05T08:01:24;62.08;;;22.75;;
21848;SDS011;11089;49.852;19.700;2022-12-05T08:04:27;59.08;;;21.65;;
21848;SDS011;11089;49.852;19.700;2022-12-05T08:07:28;55.10;;;20.00;;
21848;SDS011;11089;49.852;19.700;2022-12-05T08:10:29;48.35;;;18.83;;
21848;SDS011;11089;49.852;19.700;2022-12-05T08:13:30;41.78;;;17.40;;
21848;SDS011;11089;49.852;19.700;2022-12-05T08:16:31;43.95;;;17.42;;
21848;SDS011;11089;49.852;19.700;2022-12-05T08:19:32;46.10;;;17.33;;
21848;SDS011;11089;49.852;19.700;2022-12-05T08:22:33;62.95;;;18.55;;
21848;SDS011;11089;49.852;19.700;2022-12-05T08:25:34;57.72;;;18.80;;
21848;SDS011;11089;49.852;19.700;2022-12-05T08:28:35;42.95;;;16.33;;
21848;SDS011;11089;49.852;19.700;2022-12-05T08:31:42;49.28;;;17.48;;
21848;SDS011;11089;49.852;19.700;2022-12-05T08:34:48;41.80;;;16.13;;
21848;SDS011;11089;49.852;19.700;2022-12-05T08:37:49;38.78;;;16.73;;
21848;SDS011;11089;49.852;19.700;2022-12-05T08:40:51;40.53;;;16.08;;
21848;SDS011;11089;49.852;19.700;2022-12-05T08:43:52;42.60;;;16.77;;
21848;SDS011;11089;49.852;19.700;2022-12-05T08:46:53;41.75;;;16.52;;
21848;SDS011;11089;49.852;19.700;2022-12-05T08:49:54;34.72;;;14.98;;
21848;SDS011;11089;49.852;19.700;2022-12-05T08:52:55;70.93;;;17.42;;
21848;SDS011;11089;49.852;19.700;2022-12-05T08:55:59;33.42;;;14.52;;
21848;SDS011;11089;49.852;19.700;2022-12-05T08:59:01;33.53;;;13.95;;
21848;SDS011;11089;49.852;19.700;2022-12-05T09:02:02;31.60;;;14.88;;
21848;SDS011;11089;49.852;19.700;2022-12-05T09:05:03;31.98;;;14.13;;
21848;SDS011;11089;49.852;19.700;2022-12-05T09:08:04;31.40;;;13.85;;
21848;SDS011;11089;49.852;19.700;2022-12-05T09:11:06;30.25;;;13.40;;
21848;SDS011;11089;49.852;19.700;2022-12-05T09:14:19;36.90;;;14.52;;
21848;SDS011;11089;49.852;19.700;2022-12-05T09:17:20;39.72;;;15.98;;
21848;SDS011;11089;49.852;19.700;2022-12-05T09:20:21;37.88;;;16.33;;
21848;SDS011;11089;49.852;19.700;2022-12-05T09:23:21;39.45;;;16.70;;
21848;SDS011;11089;49.852;19.700;2022-12-05T09:26:23;35.80;;;14.82;;
21848;SDS011;11089;49.852;19.700;2022-12-05T09:29:25;42.30;;;17.17;;
21848;SDS011;11089;49.852;19.700;2022-12-05T09:32:28;74.32;;;18.35;;
21848;SDS011;11089;49.852;19.700;2022-12-05T09:35:29;68.85;;;21.20;;
21848;SDS011;11089;49.852;19.700;2022-12-05T09:38:30;52.10;;;16.40;;
21848;SDS011;11089;49.852;19.700;2022-12-05T09:48:23;48.22;;;18.65;;
21848;SDS011;11089;49.852;19.700;2022-12-05T09:51:24;66.00;;;24.10;;
21848;SDS011;11089;49.852;19.700;2022-12-05T09:54:26;57.08;;;20.48;;
21848;SDS011;11089;49.852;19.700;2022-12-05T09:57:37;47.90;;;19.13;;
21848;SDS011;11089;49.852;19.700;2022-12-05T10:01:11;45.30;;;18.67;;
21848;SDS011;11089;49.852;19.700;2022-12-05T10:17:06;57.33;;;17.73;;
21848;SDS011;11089;49.852;19.700;2022-12-05T10:20:17;43.22;;;17.10;;
21848;SDS011;11089;49.852;19.700;2022-12-05T10:23:25;59.47;;;22.35;;
21848;SDS011;11089;49.852;19.700;2022-12-05T10:26:33;57.92;;;25.25;;
21848;SDS011;11089;49.852;19.700;2022-12-05T10:29:44;54.72;;;24.65;;
21848;SDS011;11089;49.852;19.700;2022-12-05T10:32:59;49.10;;;20.40;;
21848;SDS011;11089;49.852;19.700;2022-12-05T10:36:04;51.05;;;20.17;;
21848;SDS011;11089;49.852;19.700;2022-12-05T10:39:09;38.85;;;16.00;;
21848;SDS011;11089;49.852;19.700;2022-12-05T10:45:38;37.22;;;15.88;;
21848;SDS011;11089;49.852;19.700;2022-12-05T10:48:45;33.15;;;14.88;;
21848;SDS011;11089;49.852;19.700;2022-12-05T10:51:46;42.42;;;15.85;;
21848;SDS011;11089;49.852;19.700;2022-12-05T10:54:50;42.22;;;18.02;;
21848;SDS011;11089;49.852;19.700;2022-12-05T11:01:15;156.55;;;32.30;;
21848;SDS011;11089;49.852;19.700;2022-12-05T11:04:29;73.07;;;28.83;;
21848;SDS011;11089;49.852;19.700;2022-12-05T11:07:35;71.72;;;27.38;;
21848;SDS011;11089;49.852;19.700;2022-12-05T11:10:43;64.43;;;25.45;;
21848;SDS011;11089;49.852;19.700;2022-12-05T11:13:54;55.05;;;22.63;;
21848;SDS011;11089;49.852;19.700;2022-12-05T11:17:03;42.65;;;18.40;;
21848;SDS011;11089;49.852;19.700;2022-12-05T11:23:22;57.30;;;21.85;;
21848;SDS011;11089;49.852;19.700;2022-12-05T11:26:33;54.65;;;22.08;;
21848;SDS011;11089;49.852;19.700;2022-12-05T11:29:36;54.92;;;22.38;;
21848;SDS011;11089;49.852;19.700;2022-12-05T11:32:38;43.78;;;18.42;;
21848;SDS011;11089;49.852;19.700;2022-12-05T11:35:39;48.00;;;21.00;;
21848;SDS011;11089;49.852;19.700;2022-12-05T11:38:40;48.45;;;19.65;;
21848;SDS011;11089;49.852;19.700;2022-12-05T11:41:45;35.50;;;15.85;;
21848;SDS011;11089;49.852;19.700;2022-12-05T12:08:20;99.70;;;35.92;;
21848;SDS011;11089;49.852;19.700;2022-12-05T12:11:41;112.60;;;37.92;;
21848;SDS011;11089;49.852;19.700;2022-12-05T12:21:36;75.70;;;29.65;;
21848;SDS011;11089;49.852;19.700;2022-12-05T12:28:03;73.88;;;30.80;;
21848;SDS011;11089;49.852;19.700;2022-12-05T12:41:15;55.88;;;25.58;;
21848;SDS011;11089;49.852;19.700;2022-12-05T12:51:03;77.80;;;29.83;;
21848;SDS011;11089;49.852;19.700;2022-12-05T12:57:39;69.75;;;28.65;;
21848;SDS011;11089;49.852;19.700;2022-12-05T13:04:28;72.22;;;29.48;;
21848;SDS011;11089;49.852;19.700;2022-12-05T13:07:43;72.32;;;29.45;;
21848;SDS011;11089;49.852;19.700;2022-12-05T13:10:52;59.67;;;24.92;;
21848;SDS011;11089;49.852;19.700;2022-12-05T13:13:55;59.30;;;23.13;;
21848;SDS011;11089;49.852;19.700;2022-12-05T13:16:58;93.28;;;35.08;;
21848;SDS011;11089;49.852;19.700;2022-12-05T13:20:00;88.07;;;36.95;;
21848;SDS011;11089;49.852;19.700;2022-12-05T13:23:02;96.25;;;38.80;;
21848;SDS011;11089;49.852;19.700;2022-12-05T13:26:07;145.88;;;41.10;;
21848;SDS011;11089;49.852;19.700;2022-12-05T13:29:13;104.20;;;38.97;;
21848;SDS011;11089;49.852;19.700;2022-12-05T13:35:36;96.70;;;37.45;;
21848;SDS011;11089;49.852;19.700;2022-12-05T13:38:59;116.45;;;42.78;;
21848;SDS011;11089;49.852;19.700;2022-12-05T13:42:22;134.48;;;43.83;;
21848;SDS011;11089;49.852;19.700;2022-12-05T13:45:27;118.10;;;41.22;;
21848;SDS011;11089;49.852;19.700;2022-12-05T13:48:29;124.65;;;44.05;;
21848;SDS011;11089;49.852;19.700;2022-12-05T13:51:34;136.95;;;45.13;;
21848;SDS011;11089;49.852;19.700;2022-12-05T13:54:47;191.02;;;42.35;;
21848;SDS011;11089;49.852;19.700;2022-12-05T13:57:55;155.00;;;44.78;;
21848;SDS011;11089;49.852;19.700;2022-12-05T14:04:47;239.98;;;59.83;;
21848;SDS011;11089;49.852;19.700;2022-12-05T14:07:53;153.07;;;51.60;;
21848;SDS011;11089;49.852;19.700;2022-12-05T14:13:56;138.15;;;47.72;;
21848;SDS011;11089;49.852;19.700;2022-12-05T14:16:57;197.52;;;43.85;;
21848;SDS011;11089;49.852;19.700;2022-12-05T14:26:55;99.55;;;36.60;;
21848;SDS011;11089;49.852;19.700;2022-12-05T14:30:19;91.80;;;35.13;;
21848;SDS011;11089;49.852;19.700;2022-12-05T14:33:34;90.78;;;32.05;;
21848;SDS011;11089;49.852;19.700;2022-12-05T14:36:35;89.57;;;32.15;;
21848;SDS011;11089;49.852;19.700;2022-12-05T14:39:48;75.95;;;30.45;;
21848;SDS011;11089;49.852;19.700;2022-12-05T14:42:53;77.30;;;30.88;;
21848;SDS011;11089;49.852;19.700;2022-12-05T14:46:06;92.38;;;31.98;;
21848;SDS011;11089;49.852;19.700;2022-12-05T14:52:34;77.68;;;29.13;;
21848;SDS011;11089;49.852;19.700;2022-12-05T14:55:37;78.85;;;30.48;;
21848;SDS011;11089;49.852;19.700;2022-12-05T15:01:46;62.72;;;26.67;;
21848;SDS011;11089;49.852;19.700;2022-12-05T15:08:17;76.53;;;31.95;;
21848;SDS011;11089;49.852;19.700;2022-12-05T15:11:20;77.97;;;33.13;;
21848;SDS011;11089;49.852;19.700;2022-12-05T15:14:27;71.57;;;28.83;;
21848;SDS011;11089;49.852;19.700;2022-12-05T15:17:42;73.35;;;28.52;;
21848;SDS011;11089;49.852;19.700;2022-12-05T15:23:57;89.97;;;36.22;;
21848;SDS011;11089;49.852;19.700;2022-12-05T15:27:10;84.38;;;33.22;;
21848;SDS011;11089;49.852;19.700;2022-12-05T15:30:15;89.13;;;35.15;;
21848;SDS011;11089;49.852;19.700;2022-12-05T15:33:16;96.70;;;37.47;;
21848;SDS011;11089;49.852;19.700;2022-12-05T15:36:17;102.07;;;39.90;;
21848;SDS011;11089;49.852;19.700;2022-12-05T15:39:24;115.68;;;42.28;;
21848;SDS011;11089;49.852;19.700;2022-12-05T15:45:31;87.85;;;34.85;;
21848;SDS011;11089;49.852;19.700;2022-12-05T15:48:32;90.45;;;36.85;;
21848;SDS011;11089;49.852;19.700;2022-12-05T15:51:36;93.30;;;36.33;;
21848;SDS011;11089;49.852;19.700;2022-12-05T15:54:38;104.20;;;39.67;;
21848;SDS011;11089;49.852;19.700;2022-12-05T16:01:23;87.53;;;33.70;;
21848;SDS011;11089;49.852;19.700;2022-12-05T16:04:36;97.38;;;35.83;;
21848;SDS011;11089;49.852;19.700;2022-12-05T16:07:44;76.72;;;29.95;;
21848;SDS011;11089;49.852;19.700;2022-12-05T16:10:47;72.03;;;29.80;;
21848;SDS011;11089;49.852;19.700;2022-12-05T16:13:48;72.95;;;30.95;;
21848;SDS011;11089;49.852;19.700;2022-12-05T16:16:54;73.28;;;30.55;;
21848;SDS011;11089;49.852;19.700;2022-12-05T16:23:25;67.38;;;27.88;;
21848;SDS011;11089;49.852;19.700;2022-12-05T16:26:27;60.17;;;25.70;;
21848;SDS011;11089;49.852;19.700;2022-12-05T16:29:29;67.00;;;25.92;;
21848;SDS011;11089;49.852;19.700;2022-12-05T16:32:32;63.30;;;24.67;;
21848;SDS011;11089;49.852;19.700;2022-12-05T16:35:35;64.78;;;26.80;;
21848;SDS011;11089;49.852;19.700;2022-12-05T16:38:39;64.05;;;25.73;;
21848;SDS011;11089;49.852;19.700;2022-12-05T16:41:42;54.28;;;23.58;;
21848;SDS011;11089;49.852;19.700;2022-12-05T16:48:02;55.00;;;21.95;;
21848;SDS011;11089;49.852;19.700;2022-12-05T16:54:13;51.55;;;21.85;;
21848;SDS011;11089;49.852;19.700;2022-12-05T16:57:14;53.63;;;22.90;;
21848;SDS011;11089;49.852;19.700;2022-12-05T17:00:16;49.97;;;21.30;;
21848;SDS011;11089;49.852;19.700;2022-12-05T17:03:17;54.13;;;22.60;;
21848;SDS011;11089;49.852;19.700;2022-12-05T17:06:19;52.20;;;22.27;;
21848;SDS011;11089;49.852;19.700;2022-12-05T17:09:23;49.47;;;21.42;;
21848;SDS011;11089;49.852;19.700;2022-12-05T17:12:24;51.40;;;20.83;;
21848;SDS011;11089;49.852;19.700;2022-12-05T17:15:25;50.45;;;21.20;;
21848;SDS011;11089;49.852;19.700;2022-12-05T17:18:26;51.95;;;21.33;;
21848;SDS011;11089;49.852;19.700;2022-12-05T17:21:28;53.45;;;21.65;;
21848;SDS011;11089;49.852;19.700;2022-12-05T17:24:32;58.38;;;24.55;;
21848;SDS011;11089;49.852;19.700;2022-12-05T17:27:33;55.25;;;24.92;;
21848;SDS011;11089;49.852;19.700;2022-12-05T17:30:34;49.17;;;20.88;;
21848;SDS011;11089;49.852;19.700;2022-12-05T17:33:37;54.25;;;22.90;;
21848;SDS011;11089;49.852;19.700;2022-12-05T17:36:38;46.15;;;20.02;;
21848;SDS011;11089;49.852;19.700;2022-12-05T17:39:39;47.45;;;19.35;;
21848;SDS011;11089;49.852;19.700;2022-12-05T17:42:39;49.03;;;21.50;;
21848;SDS011;11089;49.852;19.700;2022-12-05T17:45:41;48.72;;;21.10;;
21848;SDS011;11089;49.852;19.700;2022-12-05T17:48:42;57.63;;;25.13;;
21848;SDS011;11089;49.852;19.700;2022-12-05T17:51:43;64.47;;;27.63;;
21848;SDS011;11089;49.852;19.700;2022-12-05T17:54:45;76.90;;;30.75;;
21848;SDS011;11089;49.852;19.700;2022-12-05T17:57:46;67.13;;;26.33;;
21848;SDS011;11089;49.852;19.700;2022-12-05T18:00:47;58.13;;;25.30;;
21848;SDS011;11089;49.852;19.700;2022-12-05T18:03:48;75.05;;;30.75;;
21848;SDS011;11089;49.852;19.700;2022-12-05T18:06:50;72.53;;;32.60;;
21848;SDS011;11089;49.852;19.700;2022-12-05T18:09:51;70.72;;;31.70;;
21848;SDS011;11089;49.852;19.700;2022-12-05T18:12:52;66.32;;;30.33;;
21848;SDS011;11089;49.852;19.700;2022-12-05T18:15:56;74.05;;;30.25;;
21848;SDS011;11089;49.852;19.700;2022-12-05T18:18:58;69.35;;;28.77;;
21848;SDS011;11089;49.852;19.700;2022-12-05T18:21:59;72.45;;;29.38;;
21848;SDS011;11089;49.852;19.700;2022-12-05T18:25:00;67.07;;;29.17;;
21848;SDS011;11089;49.852;19.700;2022-12-05T18:28:02;71.15;;;29.50;;
21848;SDS011;11089;49.852;19.700;2022-12-05T18:31:04;68.45;;;29.92;;
21848;SDS011;11089;49.852;19.700;2022-12-05T18:34:16;70.15;;;29.17;;
21848;SDS011;11089;49.852;19.700;2022-12-05T18:37:17;63.42;;;29.85;;
21848;SDS011;11089;49.852;19.700;2022-12-05T18:40:18;63.20;;;28.10;;
21848;SDS011;11089;49.852;19.700;2022-12-05T18:43:19;70.18;;;28.75;;
21848;SDS011;11089;49.852;19.700;2022-12-05T18:46:20;68.50;;;26.48;;
21848;SDS011;11089;49.852;19.700;2022-12-05T18:49:21;66.95;;;28.48;;
21848;SDS011;11089;49.852;19.700;2022-12-05T18:52:23;67.15;;;27.95;;
21848;SDS011;11089;49.852;19.700;2022-12-05T18:55:24;60.15;;;26.63;;
21848;SDS011;11089;49.852;19.700;2022-12-05T18:58:25;66.38;;;27.42;;
21848;SDS011;11089;49.852;19.700;2022-12-05T19:01:26;61.05;;;27.00;;
21848;SDS011;11089;49.852;19.700;2022-12-05T19:04:28;60.72;;;25.77;;
21848;SDS011;11089;49.852;19.700;2022-12-05T19:07:29;60.05;;;24.30;;
21848;SDS011;11089;49.852;19.700;2022-12-05T19:10:30;61.13;;;25.17;;
21848;SDS011;11089;49.852;19.700;2022-12-05T19:13:31;61.78;;;25.15;;
21848;SDS011;11089;49.852;19.700;2022-12-05T19:16:32;69.53;;;27.83;;
21848;SDS011;11089;49.852;19.700;2022-12-05T19:19:34;61.03;;;26.85;;
21848;SDS011;11089;49.852;19.700;2022-12-05T19:22:35;64.25;;;28.10;;
21848;SDS011;11089;49.852;19.700;2022-12-05T19:25:36;70.57;;;27.13;;
21848;SDS011;11089;49.852;19.700;2022-12-05T19:28:37;65.53;;;26.33;;
21848;SDS011;11089;49.852;19.700;2022-12-05T19:31:38;70.97;;;28.63;;
21848;SDS011;11089;49.852;19.700;2022-12-05T19:34:39;67.57;;;27.60;;
21848;SDS011;11089;49.852;19.700;2022-12-05T19:37:40;69.25;;;27.20;;
21848;SDS011;11089;49.852;19.700;2022-12-05T19:40:41;70.47;;;26.83;;
21848;SDS011;11089;49.852;19.700;2022-12-05T19:43:42;77.07;;;28.20;;
21848;SDS011;11089;49.852;19.700;2022-12-05T19:46:44;64.53;;;27.77;;
21848;SDS011;11089;49.852;19.700;2022-12-05T19:49:45;73.95;;;29.58;;
21848;SDS011;11089;49.852;19.700;2022-12-05T19:52:46;71.43;;;29.65;;
21848;SDS011;11089;49.852;19.700;2022-12-05T19:55:47;74.25;;;33.42;;
21848;SDS011;11089;49.852;19.700;2022-12-05T19:58:48;94.97;;;38.45;;
21848;SDS011;11089;49.852;19.700;2022-12-05T20:01:51;89.53;;;35.10;;
21848;SDS011;11089;49.852;19.700;2022-12-05T20:04:52;72.45;;;30.05;;
21848;SDS011;11089;49.852;19.700;2022-12-05T20:07:53;70.55;;;28.13;;
21848;SDS011;11089;49.852;19.700;2022-12-05T20:10:54;63.53;;;26.27;;
21848;SDS011;11089;49.852;19.700;2022-12-05T20:13:55;53.33;;;24.05;;
21848;SDS011;11089;49.852;19.700;2022-12-05T20:16:57;54.47;;;24.15;;
21848;SDS011;11089;49.852;19.700;2022-12-05T20:19:58;52.00;;;22.92;;
21848;SDS011;11089;49.852;19.700;2022-12-05T20:22:59;57.72;;;24.15;;
21848;SDS011;11089;49.852;19.700;2022-12-05T20:26:08;55.78;;;23.30;;
21848;SDS011;11089;49.852;19.700;2022-12-05T20:29:13;53.40;;;23.73;;
21848;SDS011;11089;49.852;19.700;2022-12-05T20:32:14;57.70;;;23.48;;
21848;SDS011;11089;49.852;19.700;2022-12-05T20:35:15;62.55;;;23.98;;